Terminal Aerodrome Forecast
Issued by NWS

Home | Current Version | Previous Version | Graphics & Text | Print | Product List | Glossary On
Versions: 1 2 3 4 5 6 7 8 9 10 11 12 13 14 15 16 17 18 19 20 21 22
132
FTUS43 KGRB 271935 AAA
TAFAUW
TAF AMD
KAUW 271935Z 2720/2818 06007KT P6SM SCT045
      TEMPO 2720/2723 BKN045
     FM280000 04003KT P6SM BKN050
     FM280900 03003KT P6SM SKC
      TEMPO 2809/2812 3SM BR
     FM281400 06007KT P6SM SCT035=

USA.gov is the U.S. government's official web portal to all federal, state and local government web resources and services.